Augusta, Arkansas
Current Conditions -  °F | °C
As of 9:56 AM on Wednesday 22 Oct 2014 (Local Time) from KSRC Reporting Station
Clear Clear  
Wind Chill: 58°   Ceiling: Unl
Heat Index: 58°   Visibility: 10mi
Dew Point: 48°   Wind: 7mph
Humidity: 70%   Direction: 70°ENE
Pressure: 30.28"   Gusts: NA
Location:  35.28°N, 91.37°W
Report Text: KSRC 221456Z AUTO 07006KT 10SM CLR 14/09 A3028 RMK AO2 SLP260 T01440089 53016 TSNO
Loading
Personal Weather Stations






























Interactive Weather Map
Tropical Storm Tracking
New forecast layout! Learn more

10-Day Weather Forecast

Advertisements
Track Severe Weather on mobile